sensor_id;sensor_type;location;lat;lon;timestamp;temperature;humidity
31809;DHT22;18379;48.208;-1.518;2022-08-01T00:01:07;20.70;99.90
31809;DHT22;18379;48.208;-1.518;2022-08-01T00:06:08;20.70;99.90
31809;DHT22;18379;48.208;-1.518;2022-08-01T00:11:09;20.70;99.90
31809;DHT22;18379;48.208;-1.518;2022-08-01T00:16:09;20.70;99.90
31809;DHT22;18379;48.208;-1.518;2022-08-01T00:21:10;20.80;99.90
31809;DHT22;18379;48.208;-1.518;2022-08-01T00:26:12;20.70;99.90
31809;DHT22;18379;48.208;-1.518;2022-08-01T00:31:13;20.80;99.90
31809;DHT22;18379;48.208;-1.518;2022-08-01T00:36:14;20.90;99.90
31809;DHT22;18379;48.208;-1.518;2022-08-01T00:41:15;20.80;99.90
31809;DHT22;18379;48.208;-1.518;2022-08-01T00:46:16;20.90;99.90
31809;DHT22;18379;48.208;-1.518;2022-08-01T00:51:17;20.80;99.90
31809;DHT22;18379;48.208;-1.518;2022-08-01T00:56:24;20.80;99.90
31809;DHT22;18379;48.208;-1.518;2022-08-01T01:01:25;20.80;99.90
31809;DHT22;18379;48.208;-1.518;2022-08-01T01:06:48;20.80;99.90
31809;DHT22;18379;48.208;-1.518;2022-08-01T01:17:06;20.70;99.90
31809;DHT22;18379;48.208;-1.518;2022-08-01T01:27:45;20.60;99.90
31809;DHT22;18379;48.208;-1.518;2022-08-01T01:32:51;20.50;99.90
31809;DHT22;18379;48.208;-1.518;2022-08-01T01:38:00;20.60;99.90
31809;DHT22;18379;48.208;-1.518;2022-08-01T01:43:01;20.50;99.90
31809;DHT22;18379;48.208;-1.518;2022-08-01T01:48:03;20.40;99.90
31809;DHT22;18379;48.208;-1.518;2022-08-01T01:53:05;20.40;99.90
31809;DHT22;18379;48.208;-1.518;2022-08-01T01:58:07;20.40;99.90
31809;DHT22;18379;48.208;-1.518;2022-08-01T02:03:11;20.40;99.90
31809;DHT22;18379;48.208;-1.518;2022-08-01T02:08:15;20.40;99.90
31809;DHT22;18379;48.208;-1.518;2022-08-01T02:13:17;20.30;99.90
31809;DHT22;18379;48.208;-1.518;2022-08-01T02:18:18;20.20;99.90
31809;DHT22;18379;48.208;-1.518;2022-08-01T02:23:19;20.20;99.90
31809;DHT22;18379;48.208;-1.518;2022-08-01T02:28:28;20.30;99.90
31809;DHT22;18379;48.208;-1.518;2022-08-01T02:33:45;20.20;99.90
31809;DHT22;18379;48.208;-1.518;2022-08-01T02:38:46;20.30;99.90
31809;DHT22;18379;48.208;-1.518;2022-08-01T02:43:49;20.30;99.90
31809;DHT22;18379;48.208;-1.518;2022-08-01T02:48:53;20.20;99.90
31809;DHT22;18379;48.208;-1.518;2022-08-01T02:53:57;20.10;99.90
31809;DHT22;18379;48.208;-1.518;2022-08-01T02:58:59;20.20;99.90
31809;DHT22;18379;48.208;-1.518;2022-08-01T03:04:02;20.10;99.90
31809;DHT22;18379;48.208;-1.518;2022-08-01T03:09:06;20.00;99.90
31809;DHT22;18379;48.208;-1.518;2022-08-01T03:14:09;20.10;99.90
31809;DHT22;18379;48.208;-1.518;2022-08-01T03:19:14;20.10;99.90
31809;DHT22;18379;48.208;-1.518;2022-08-01T03:24:16;20.10;99.90
31809;DHT22;18379;48.208;-1.518;2022-08-01T03:29:22;20.10;99.90
31809;DHT22;18379;48.208;-1.518;2022-08-01T03:34:25;20.00;99.90
31809;DHT22;18379;48.208;-1.518;2022-08-01T03:39:34;19.90;99.90
31809;DHT22;18379;48.208;-1.518;2022-08-01T03:44:38;19.90;99.90
31809;DHT22;18379;48.208;-1.518;2022-08-01T03:49:44;19.80;99.90
31809;DHT22;18379;48.208;-1.518;2022-08-01T03:54:49;19.80;99.90
31809;DHT22;18379;48.208;-1.518;2022-08-01T03:59:50;19.80;99.90
31809;DHT22;18379;48.208;-1.518;2022-08-01T04:04:52;19.70;99.90
31809;DHT22;18379;48.208;-1.518;2022-08-01T04:09:53;19.50;99.90
31809;DHT22;18379;48.208;-1.518;2022-08-01T04:14:54;19.60;99.90
31809;DHT22;18379;48.208;-1.518;2022-08-01T04:19:55;19.50;99.90
31809;DHT22;18379;48.208;-1.518;2022-08-01T04:24:57;19.50;99.90
31809;DHT22;18379;48.208;-1.518;2022-08-01T04:30:00;19.70;99.90
31809;DHT22;18379;48.208;-1.518;2022-08-01T04:35:06;19.80;99.90
31809;DHT22;18379;48.208;-1.518;2022-08-01T04:40:08;19.80;99.90
31809;DHT22;18379;48.208;-1.518;2022-08-01T04:45:09;19.80;99.90
31809;DHT22;18379;48.208;-1.518;2022-08-01T04:50:11;19.70;99.90
31809;DHT22;18379;48.208;-1.518;2022-08-01T04:55:12;19.70;99.90
31809;DHT22;18379;48.208;-1.518;2022-08-01T05:00:14;19.70;99.90
31809;DHT22;18379;48.208;-1.518;2022-08-01T05:05:16;19.70;99.90
31809;DHT22;18379;48.208;-1.518;2022-08-01T05:10:17;19.90;99.90
31809;DHT22;18379;48.208;-1.518;2022-08-01T05:15:18;20.10;99.90
31809;DHT22;18379;48.208;-1.518;2022-08-01T05:20:19;20.10;99.90
31809;DHT22;18379;48.208;-1.518;2022-08-01T05:25:20;20.10;99.90
31809;DHT22;18379;48.208;-1.518;2022-08-01T05:30:21;20.20;99.90
31809;DHT22;18379;48.208;-1.518;2022-08-01T05:35:22;20.10;99.90
31809;DHT22;18379;48.208;-1.518;2022-08-01T05:40:22;20.00;99.90
31809;DHT22;18379;48.208;-1.518;2022-08-01T05:45:23;20.00;99.90
31809;DHT22;18379;48.208;-1.518;2022-08-01T05:50:24;20.10;99.90
31809;DHT22;18379;48.208;-1.518;2022-08-01T05:55:25;20.20;99.90
31809;DHT22;18379;48.208;-1.518;2022-08-01T06:00:26;20.20;99.90
31809;DHT22;18379;48.208;-1.518;2022-08-01T06:05:27;20.30;99.90
31809;DHT22;18379;48.208;-1.518;2022-08-01T06:10:27;20.30;99.90
31809;DHT22;18379;48.208;-1.518;2022-08-01T06:15:30;20.30;99.90
31809;DHT22;18379;48.208;-1.518;2022-08-01T06:20:31;20.20;99.90
31809;DHT22;18379;48.208;-1.518;2022-08-01T06:25:32;20.20;99.90
31809;DHT22;18379;48.208;-1.518;2022-08-01T06:30:33;20.30;99.90
31809;DHT22;18379;48.208;-1.518;2022-08-01T06:35:35;20.30;99.90
31809;DHT22;18379;48.208;-1.518;2022-08-01T06:40:36;20.30;99.90
31809;DHT22;18379;48.208;-1.518;2022-08-01T06:45:40;20.20;99.90
31809;DHT22;18379;48.208;-1.518;2022-08-01T06:50:41;20.40;99.90
31809;DHT22;18379;48.208;-1.518;2022-08-01T06:55:42;20.40;99.90
31809;DHT22;18379;48.208;-1.518;2022-08-01T07:00:43;20.40;99.90
31809;DHT22;18379;48.208;-1.518;2022-08-01T07:05:43;20.20;99.90
31809;DHT22;18379;48.208;-1.518;2022-08-01T07:10:44;20.10;99.90
31809;DHT22;18379;48.208;-1.518;2022-08-01T07:15:45;20.20;99.90
31809;DHT22;18379;48.208;-1.518;2022-08-01T07:20:46;20.20;99.90
31809;DHT22;18379;48.208;-1.518;2022-08-01T07:25:47;20.40;99.90
31809;DHT22;18379;48.208;-1.518;2022-08-01T07:30:49;20.60;99.90
31809;DHT22;18379;48.208;-1.518;2022-08-01T07:35:50;20.80;99.90
31809;DHT22;18379;48.208;-1.518;2022-08-01T07:40:51;21.00;99.90
31809;DHT22;18379;48.208;-1.518;2022-08-01T07:45:52;21.10;99.90
31809;DHT22;18379;48.208;-1.518;2022-08-01T07:50:53;21.00;99.90
31809;DHT22;18379;48.208;-1.518;2022-08-01T07:55:54;21.00;99.90
31809;DHT22;18379;48.208;-1.518;2022-08-01T08:00:55;21.00;99.90
31809;DHT22;18379;48.208;-1.518;2022-08-01T08:05:56;21.10;99.90
31809;DHT22;18379;48.208;-1.518;2022-08-01T08:10:56;21.20;99.90
31809;DHT22;18379;48.208;-1.518;2022-08-01T08:15:57;21.20;99.90
31809;DHT22;18379;48.208;-1.518;2022-08-01T08:20:59;21.20;99.90
31809;DHT22;18379;48.208;-1.518;2022-08-01T08:26:00;21.30;99.90
31809;DHT22;18379;48.208;-1.518;2022-08-01T08:31:00;21.30;99.90
31809;DHT22;18379;48.208;-1.518;2022-08-01T08:36:01;21.40;99.90
31809;DHT22;18379;48.208;-1.518;2022-08-01T08:41:02;21.40;99.90
31809;DHT22;18379;48.208;-1.518;2022-08-01T08:46:05;21.40;99.90
31809;DHT22;18379;48.208;-1.518;2022-08-01T08:51:09;21.40;99.90
31809;DHT22;18379;48.208;-1.518;2022-08-01T08:56:14;21.50;99.90
31809;DHT22;18379;48.208;-1.518;2022-08-01T09:01:15;21.60;99.90
31809;DHT22;18379;48.208;-1.518;2022-08-01T09:06:18;21.70;99.90
31809;DHT22;18379;48.208;-1.518;2022-08-01T09:11:19;21.80;99.90
31809;DHT22;18379;48.208;-1.518;2022-08-01T09:16:20;21.80;99.90
31809;DHT22;18379;48.208;-1.518;2022-08-01T09:21:22;21.60;99.90
31809;DHT22;18379;48.208;-1.518;2022-08-01T09:26:31;21.70;99.90
31809;DHT22;18379;48.208;-1.518;2022-08-01T09:31:41;21.80;99.90
31809;DHT22;18379;48.208;-1.518;2022-08-01T09:36:57;21.70;99.90
31809;DHT22;18379;48.208;-1.518;2022-08-01T09:42:00;21.80;99.90
31809;DHT22;18379;48.208;-1.518;2022-08-01T09:47:02;22.00;99.90
31809;DHT22;18379;48.208;-1.518;2022-08-01T09:52:18;21.80;99.90
31809;DHT22;18379;48.208;-1.518;2022-08-01T09:57:20;22.00;99.90
31809;DHT22;18379;48.208;-1.518;2022-08-01T10:02:38;22.10;99.90
31809;DHT22;18379;48.208;-1.518;2022-08-01T10:07:58;22.10;99.90
31809;DHT22;18379;48.208;-1.518;2022-08-01T10:13:00;22.30;99.90
31809;DHT22;18379;48.208;-1.518;2022-08-01T10:18:02;22.20;99.90
31809;DHT22;18379;48.208;-1.518;2022-08-01T10:23:04;22.50;99.90
31809;DHT22;18379;48.208;-1.518;2022-08-01T10:28:13;22.30;99.90
31809;DHT22;18379;48.208;-1.518;2022-08-01T10:33:15;22.20;99.90
31809;DHT22;18379;48.208;-1.518;2022-08-01T10:38:16;22.20;99.90
31809;DHT22;18379;48.208;-1.518;2022-08-01T10:43:17;22.30;99.90
31809;DHT22;18379;48.208;-1.518;2022-08-01T10:48:31;22.40;99.90
31809;DHT22;18379;48.208;-1.518;2022-08-01T10:53:35;22.30;99.90
31809;DHT22;18379;48.208;-1.518;2022-08-01T10:58:38;22.40;99.50
31809;DHT22;18379;48.208;-1.518;2022-08-01T11:03:58;22.30;99.70
31809;DHT22;18379;48.208;-1.518;2022-08-01T11:14:15;22.30;99.40
31809;DHT22;18379;48.208;-1.518;2022-08-01T11:19:16;22.60;99.30
31809;DHT22;18379;48.208;-1.518;2022-08-01T11:35:09;22.90;99.20
31809;DHT22;18379;48.208;-1.518;2022-08-01T11:45:21;23.30;98.30
31809;DHT22;18379;48.208;-1.518;2022-08-01T11:50:42;23.80;98.30
31809;DHT22;18379;48.208;-1.518;2022-08-01T11:55:46;23.90;96.70
31809;DHT22;18379;48.208;-1.518;2022-08-01T12:00:52;24.20;96.80
31809;DHT22;18379;48.208;-1.518;2022-08-01T12:05:56;24.30;95.90
31809;DHT22;18379;48.208;-1.518;2022-08-01T12:10:58;24.40;96.50
31809;DHT22;18379;48.208;-1.518;2022-08-01T12:16:07;24.60;95.50
31809;DHT22;18379;48.208;-1.518;2022-08-01T12:21:08;24.50;95.50
31809;DHT22;18379;48.208;-1.518;2022-08-01T12:26:09;24.50;95.20
31809;DHT22;18379;48.208;-1.518;2022-08-01T12:31:10;24.30;95.00
31809;DHT22;18379;48.208;-1.518;2022-08-01T12:36:11;24.60;94.80
31809;DHT22;18379;48.208;-1.518;2022-08-01T12:41:11;24.50;95.30
31809;DHT22;18379;48.208;-1.518;2022-08-01T12:46:13;24.80;94.70
31809;DHT22;18379;48.208;-1.518;2022-08-01T12:51:18;24.40;94.60
31809;DHT22;18379;48.208;-1.518;2022-08-01T12:56:31;24.20;94.70
31809;DHT22;18379;48.208;-1.518;2022-08-01T13:01:33;23.90;95.30
31809;DHT22;18379;48.208;-1.518;2022-08-01T13:06:35;24.00;95.30
31809;DHT22;18379;48.208;-1.518;2022-08-01T13:11:36;24.00;95.30
31809;DHT22;18379;48.208;-1.518;2022-08-01T13:16:46;24.00;95.50
31809;DHT22;18379;48.208;-1.518;2022-08-01T13:21:56;24.20;95.40
31809;DHT22;18379;48.208;-1.518;2022-08-01T13:27:03;24.20;95.00
31809;DHT22;18379;48.208;-1.518;2022-08-01T13:32:18;24.10;95.40
31809;DHT22;18379;48.208;-1.518;2022-08-01T13:37:19;24.10;95.10
31809;DHT22;18379;48.208;-1.518;2022-08-01T13:42:20;24.20;95.60
31809;DHT22;18379;48.208;-1.518;2022-08-01T13:47:21;24.50;94.30
31809;DHT22;18379;48.208;-1.518;2022-08-01T13:52:21;24.50;94.40
31809;DHT22;18379;48.208;-1.518;2022-08-01T13:57:22;24.70;93.70
31809;DHT22;18379;48.208;-1.518;2022-08-01T14:02:23;24.70;93.90
31809;DHT22;18379;48.208;-1.518;2022-08-01T14:07:24;24.70;94.10
31809;DHT22;18379;48.208;-1.518;2022-08-01T14:12:26;25.10;93.60
31809;DHT22;18379;48.208;-1.518;2022-08-01T14:17:26;25.50;92.80
31809;DHT22;18379;48.208;-1.518;2022-08-01T14:22:27;25.00;92.20
31809;DHT22;18379;48.208;-1.518;2022-08-01T14:27:28;25.10;92.90
31809;DHT22;18379;48.208;-1.518;2022-08-01T14:32:31;25.60;93.40
31809;DHT22;18379;48.208;-1.518;2022-08-01T14:37:34;25.30;91.80
31809;DHT22;18379;48.208;-1.518;2022-08-01T14:42:36;25.00;92.50
31809;DHT22;18379;48.208;-1.518;2022-08-01T14:47:41;25.30;92.00
31809;DHT22;18379;48.208;-1.518;2022-08-01T14:52:42;25.50;91.40
31809;DHT22;18379;48.208;-1.518;2022-08-01T14:57:43;25.20;91.40
31809;DHT22;18379;48.208;-1.518;2022-08-01T15:02:44;25.10;92.00
31809;DHT22;18379;48.208;-1.518;2022-08-01T15:07:45;25.20;91.70
31809;DHT22;18379;48.208;-1.518;2022-08-01T15:12:46;25.60;91.70
31809;DHT22;18379;48.208;-1.518;2022-08-01T15:17:47;25.90;91.10
31809;DHT22;18379;48.208;-1.518;2022-08-01T15:22:48;25.80;90.40
31809;DHT22;18379;48.208;-1.518;2022-08-01T15:27:49;25.70;90.50
31809;DHT22;18379;48.208;-1.518;2022-08-01T15:32:50;25.50;90.70
31809;DHT22;18379;48.208;-1.518;2022-08-01T15:37:50;25.50;91.00
31809;DHT22;18379;48.208;-1.518;2022-08-01T15:42:51;25.70;91.00
31809;DHT22;18379;48.208;-1.518;2022-08-01T15:47:52;26.00;90.10
31809;DHT22;18379;48.208;-1.518;2022-08-01T15:52:53;25.80;90.30
31809;DHT22;18379;48.208;-1.518;2022-08-01T15:57:54;25.80;90.00
31809;DHT22;18379;48.208;-1.518;2022-08-01T16:02:55;25.90;88.90
31809;DHT22;18379;48.208;-1.518;2022-08-01T16:07:56;25.70;89.60
31809;DHT22;18379;48.208;-1.518;2022-08-01T16:12:57;25.80;89.70
31809;DHT22;18379;48.208;-1.518;2022-08-01T16:17:57;25.50;90.00
31809;DHT22;18379;48.208;-1.518;2022-08-01T16:22:58;25.30;90.40
31809;DHT22;18379;48.208;-1.518;2022-08-01T16:27:59;25.50;90.20
31809;DHT22;18379;48.208;-1.518;2022-08-01T16:33:01;25.70;90.10
31809;DHT22;18379;48.208;-1.518;2022-08-01T16:38:03;25.40;89.50
31809;DHT22;18379;48.208;-1.518;2022-08-01T16:43:04;25.20;90.40
31809;DHT22;18379;48.208;-1.518;2022-08-01T16:48:05;25.20;90.30
31809;DHT22;18379;48.208;-1.518;2022-08-01T16:53:07;25.10;90.90
31809;DHT22;18379;48.208;-1.518;2022-08-01T16:58:07;24.80;91.10
31809;DHT22;18379;48.208;-1.518;2022-08-01T17:03:12;24.90;91.30
31809;DHT22;18379;48.208;-1.518;2022-08-01T17:08:13;24.80;91.90
31809;DHT22;18379;48.208;-1.518;2022-08-01T17:13:13;24.70;92.00
31809;DHT22;18379;48.208;-1.518;2022-08-01T17:18:14;24.60;92.40
31809;DHT22;18379;48.208;-1.518;2022-08-01T17:23:16;24.50;92.60
31809;DHT22;18379;48.208;-1.518;2022-08-01T17:28:17;24.40;92.80
31809;DHT22;18379;48.208;-1.518;2022-08-01T17:33:17;24.40;92.80
31809;DHT22;18379;48.208;-1.518;2022-08-01T17:38:18;24.40;92.80
31809;DHT22;18379;48.208;-1.518;2022-08-01T17:43:19;24.30;93.00
31809;DHT22;18379;48.208;-1.518;2022-08-01T17:48:20;24.20;93.20
31809;DHT22;18379;48.208;-1.518;2022-08-01T17:53:21;24.20;93.50
31809;DHT22;18379;48.208;-1.518;2022-08-01T17:58:26;24.20;93.70
31809;DHT22;18379;48.208;-1.518;2022-08-01T18:03:27;24.00;93.80
31809;DHT22;18379;48.208;-1.518;2022-08-01T18:09:04;23.90;94.20
31809;DHT22;18379;48.208;-1.518;2022-08-01T18:20:03;23.60;94.50
31809;DHT22;18379;48.208;-1.518;2022-08-01T18:25:04;23.50;94.80
31809;DHT22;18379;48.208;-1.518;2022-08-01T18:30:06;23.30;95.00
31809;DHT22;18379;48.208;-1.518;2022-08-01T18:35:08;23.30;95.20
31809;DHT22;18379;48.208;-1.518;2022-08-01T18:40:09;23.10;95.30
31809;DHT22;18379;48.208;-1.518;2022-08-01T18:45:11;23.00;95.70
31809;DHT22;18379;48.208;-1.518;2022-08-01T18:50:12;23.00;95.80
31809;DHT22;18379;48.208;-1.518;2022-08-01T18:55:13;22.90;95.80
31809;DHT22;18379;48.208;-1.518;2022-08-01T19:00:14;22.70;96.20
31809;DHT22;18379;48.208;-1.518;2022-08-01T19:05:15;22.60;96.40
31809;DHT22;18379;48.208;-1.518;2022-08-01T19:10:16;22.60;96.50
31809;DHT22;18379;48.208;-1.518;2022-08-01T19:15:16;22.50;96.80
31809;DHT22;18379;48.208;-1.518;2022-08-01T19:20:17;22.30;97.10
31809;DHT22;18379;48.208;-1.518;2022-08-01T19:25:18;22.20;97.20
31809;DHT22;18379;48.208;-1.518;2022-08-01T19:30:19;22.10;97.60
31809;DHT22;18379;48.208;-1.518;2022-08-01T19:35:20;22.10;97.70
31809;DHT22;18379;48.208;-1.518;2022-08-01T19:40:22;22.00;97.90
31809;DHT22;18379;48.208;-1.518;2022-08-01T19:45:27;21.80;98.40
31809;DHT22;18379;48.208;-1.518;2022-08-01T19:50:28;21.60;98.50
31809;DHT22;18379;48.208;-1.518;2022-08-01T19:55:34;21.50;98.80
31809;DHT22;18379;48.208;-1.518;2022-08-01T20:00:38;21.40;99.10
31809;DHT22;18379;48.208;-1.518;2022-08-01T20:05:39;21.30;99.30
31809;DHT22;18379;48.208;-1.518;2022-08-01T20:10:40;21.20;99.30
31809;DHT22;18379;48.208;-1.518;2022-08-01T20:15:42;21.20;99.50
31809;DHT22;18379;48.208;-1.518;2022-08-01T20:20:46;21.10;99.60
31809;DHT22;18379;48.208;-1.518;2022-08-01T20:25:50;21.00;99.70
31809;DHT22;18379;48.208;-1.518;2022-08-01T20:30:56;20.80;99.90
31809;DHT22;18379;48.208;-1.518;2022-08-01T20:35:58;20.70;99.90
31809;DHT22;18379;48.208;-1.518;2022-08-01T20:41:01;20.60;99.90
31809;DHT22;18379;48.208;-1.518;2022-08-01T20:46:03;20.70;99.90
31809;DHT22;18379;48.208;-1.518;2022-08-01T20:51:04;20.70;99.90
31809;DHT22;18379;48.208;-1.518;2022-08-01T21:07:29;20.50;99.90
31809;DHT22;18379;48.208;-1.518;2022-08-01T21:12:42;20.30;99.90
31809;DHT22;18379;48.208;-1.518;2022-08-01T21:18:13;20.10;99.90
31809;DHT22;18379;48.208;-1.518;2022-08-01T21:23:31;20.00;99.90
31809;DHT22;18379;48.208;-1.518;2022-08-01T21:28:33;20.10;99.90
31809;DHT22;18379;48.208;-1.518;2022-08-01T21:33:36;20.10;99.90
31809;DHT22;18379;48.208;-1.518;2022-08-01T21:38:40;19.90;99.90
31809;DHT22;18379;48.208;-1.518;2022-08-01T21:43:45;19.90;99.90
31809;DHT22;18379;48.208;-1.518;2022-08-01T21:48:48;19.90;99.90
31809;DHT22;18379;48.208;-1.518;2022-08-01T21:54:03;19.90;99.90
31809;DHT22;18379;48.208;-1.518;2022-08-01T21:59:18;19.90;99.90
31809;DHT22;18379;48.208;-1.518;2022-08-01T22:09:47;19.80;99.90
31809;DHT22;18379;48.208;-1.518;2022-08-01T22:14:49;19.80;99.90
31809;DHT22;18379;48.208;-1.518;2022-08-01T22:19:53;19.80;99.90
31809;DHT22;18379;48.208;-1.518;2022-08-01T22:24:57;19.80;99.90
31809;DHT22;18379;48.208;-1.518;2022-08-01T22:30:03;19.80;99.90
31809;DHT22;18379;48.208;-1.518;2022-08-01T22:35:13;19.80;99.90
31809;DHT22;18379;48.208;-1.518;2022-08-01T22:40:14;20.00;99.90
31809;DHT22;18379;48.208;-1.518;2022-08-01T22:45:22;19.80;99.90
31809;DHT22;18379;48.208;-1.518;2022-08-01T22:55:54;19.80;99.90
31809;DHT22;18379;48.208;-1.518;2022-08-01T23:01:01;19.70;99.90
31809;DHT22;18379;48.208;-1.518;2022-08-01T23:11:18;19.70;99.90
31809;DHT22;18379;48.208;-1.518;2022-08-01T23:16:20;19.70;99.90
31809;DHT22;18379;48.208;-1.518;2022-08-01T23:21:22;19.60;99.90
31809;DHT22;18379;48.208;-1.518;2022-08-01T23:26:23;19.60;99.90
31809;DHT22;18379;48.208;-1.518;2022-08-01T23:31:26;19.70;99.90
31809;DHT22;18379;48.208;-1.518;2022-08-01T23:36:28;19.80;99.90
31809;DHT22;18379;48.208;-1.518;2022-08-01T23:41:29;19.90;99.90
31809;DHT22;18379;48.208;-1.518;2022-08-01T23:46:29;19.90;99.90
31809;DHT22;18379;48.208;-1.518;2022-08-01T23:51:30;19.90;99.90
31809;DHT22;18379;48.208;-1.518;2022-08-01T23:56:31;19.90;99.90
